Time;durP1;ratioP1;P1;durP2;ratioP2;P2;SDS_P1;SDS_P2;PMS_P1;PMS_P2;Temp;Humidity;BMP_temperature;BMP_pressure;BME280_temperature;BME280_humidity;BME280_pressure;Samples;Min_cycle;Max_cycle;Signal;HPM_P1;HPM_P2
2023/08/07 00:01:02;;;;;;;16.08;4.00;;;;;;;21.57;63.48;100478.78;6133483;23;20053;-81
2023/08/07 00:03:29;;;;;;;20.08;4.28;;;;;;;21.73;63.69;100494.53;6134275;23;20025;-80
2023/08/07 00:05:56;;;;;;;19.90;4.38;;;;;;;21.66;64.63;100505.34;6131513;23;20021;-80
2023/08/07 00:08:23;;;;;;;18.70;4.30;;;;;;;21.24;65.00;100453.47;6141773;23;20315;-79
2023/08/07 00:10:52;;;;;;;20.98;5.13;;;;;;;21.01;65.30;100437.72;6134176;23;20021;-80
2023/08/07 00:13:19;;;;;;;25.80;4.40;;;;;;;21.40;66.12;100503.53;6164558;23;20136;-79
2023/08/07 00:15:46;;;;;;;17.27;4.30;;;;;;;21.23;66.40;100477.97;6136439;23;20180;-78
2023/08/07 00:18:13;;;;;;;20.08;4.28;;;;;;;21.39;66.52;100491.06;6126770;23;20087;-78
2023/08/07 00:20:39;;;;;;;18.25;4.05;;;;;;;21.53;66.39;100505.38;6135419;23;20437;-78
2023/08/07 00:23:06;;;;;;;22.33;4.53;;;;;;;21.39;66.63;100477.56;6131384;23;20319;-78
2023/08/07 00:25:33;;;;;;;23.15;4.78;;;;;;;21.61;67.06;100517.84;6118099;23;20017;-80
2023/08/07 00:28:00;;;;;;;19.20;4.75;;;;;;;21.65;67.05;100519.91;6156433;23;20476;-80
2023/08/07 00:30:26;;;;;;;18.83;4.55;;;;;;;21.68;67.15;100514.06;6144816;23;20025;-78
2023/08/07 00:32:53;;;;;;;33.13;5.40;;;;;;;21.71;67.02;100526.31;6138650;23;20320;-78
2023/08/07 00:35:20;;;;;;;22.27;4.45;;;;;;;21.49;67.56;100499.56;6157557;23;20033;-79
2023/08/07 00:37:47;;;;;;;23.77;4.40;;;;;;;21.12;67.81;100455.97;6145976;23;20372;-79
2023/08/07 00:40:13;;;;;;;21.27;4.88;;;;;;;21.51;68.14;100529.91;6085691;23;20049;-80
2023/08/07 00:42:40;;;;;;;17.88;4.75;;;;;;;21.34;68.38;100501.66;6127646;23;20021;-80
2023/08/07 00:45:07;;;;;;;21.65;4.57;;;;;;;21.40;68.22;100490.03;6144385;23;20211;-80
2023/08/07 00:47:37;;;;;;;29.15;5.00;;;;;;;21.56;68.36;100521.16;6130451;23;20104;-78
2023/08/07 00:50:08;;;;;;;17.45;4.88;;;;;;;21.52;68.90;100530.72;6133699;23;20017;-81
2023/08/07 00:52:35;;;;;;;22.48;5.05;;;;;;;21.44;69.17;100523.69;6158223;23;20370;-78
2023/08/07 00:55:03;;;;;;;23.23;3.88;;;;;;;21.49;68.98;100525.75;6126637;23;20021;-79
2023/08/07 00:57:30;;;;;;;21.33;4.82;;;;;;;21.35;69.26;100503.28;6118908;23;20244;-78
2023/08/07 00:59:59;;;;;;;23.92;4.93;;;;;;;21.33;69.70;100500.78;6134968;23;20075;-78
2023/08/07 01:02:25;;;;;;;19.95;4.45;;;;;;;21.27;70.04;100508.91;6145395;23;20035;-79
2023/08/07 01:04:53;;;;;;;28.23;4.18;;;;;;;21.21;70.20;100517.84;6128130;23;20483;-79
2023/08/07 01:07:22;;;;;;;19.30;4.13;;;;;;;21.27;70.33;100533.22;6150448;23;20024;-80
2023/08/07 01:09:49;;;;;;;25.83;5.03;;;;;;;21.38;70.10;100540.66;6134511;23;20021;-79
2023/08/07 01:12:26;;;;;;;16.38;4.32;;;;;;;21.30;70.20;100543.59;6101599;23;20361;-79
2023/08/07 01:15:01;;;;;;;22.30;4.05;;;;;;;21.00;71.10;100518.91;6136679;23;20021;-80
2023/08/07 01:17:34;;;;;;;21.60;4.40;;;;;;;21.16;70.63;100541.94;6130227;23;20099;-80
2023/08/07 01:20:04;;;;;;;19.42;3.67;;;;;;;21.13;70.62;100553.97;6128603;23;20024;-80
2023/08/07 01:22:30;;;;;;;22.88;4.70;;;;;;;21.25;70.67;100573.91;6135932;23;20794;-78
2023/08/07 01:25:00;;;;;;;16.98;4.43;;;;;;;21.23;71.02;100564.34;6127068;23;20401;-80
2023/08/07 01:27:41;;;;;;;19.15;4.22;;;;;;;20.91;71.41;100550.63;6141609;23;20083;-80
2023/08/07 01:30:10;;;;;;;29.52;4.75;;;;;;;20.81;71.66;100547.50;6126255;23;20013;-80
2023/08/07 01:32:54;;;;;;;25.70;4.47;;;;;;;20.87;71.72;100563.69;6120622;23;20025;-78
2023/08/07 01:35:29;;;;;;;27.45;4.43;;;;;;;20.60;71.47;100518.81;6143219;23;20340;-79
2023/08/07 01:37:58;;;;;;;19.25;4.60;;;;;;;20.97;71.64;100581.34;6136834;23;20021;-78
2023/08/07 01:40:28;;;;;;;23.40;5.03;;;;;;;20.80;71.76;100554.78;6113543;23;20025;-77
2023/08/07 01:42:55;;;;;;;15.35;4.68;;;;;;;21.06;71.79;100585.53;6117672;23;20182;-79
2023/08/07 01:45:27;;;;;;;16.52;5.30;;;;;;;20.95;71.53;100576.19;6136525;23;20016;-79
2023/08/07 01:47:54;;;;;;;25.02;4.82;;;;;;;20.30;71.70;100484.09;6153820;23;20013;-78
2023/08/07 01:50:24;;;;;;;19.40;4.20;;;;;;;20.78;72.16;100562.25;6141187;23;20025;-79
2023/08/07 01:52:51;;;;;;;21.42;5.05;;;;;;;20.87;72.03;100587.16;6164773;23;20023;-78
2023/08/07 01:55:20;;;;;;;19.10;4.72;;;;;;;20.85;72.07;100581.97;6111780;23;20268;-77
2023/08/07 01:57:46;;;;;;;20.08;4.30;;;;;;;20.93;72.57;100602.53;6129077;23;20084;-82
2023/08/07 02:00:15;;;;;;;16.85;4.32;;;;;;;20.84;72.15;100588.38;6120653;23;20013;-80
2023/08/07 02:02:42;;;;;;;23.70;4.32;;;;;;;20.61;72.42;100567.19;6133826;23;20282;-80
2023/08/07 02:05:09;;;;;;;24.02;4.82;;;;;;;20.32;72.54;100527.84;6174187;23;20029;-80
2023/08/07 02:07:35;;;;;;;13.18;3.90;;;;;;;20.75;73.01;100605.78;6175505;23;20021;-79
2023/08/07 02:10:05;;;;;;;10.82;4.07;;;;;;;20.67;72.97;100584.41;6160647;23;20074;-78
2023/08/07 02:12:36;;;;;;;33.67;5.43;;;;;;;20.33;72.86;100528.69;6157844;23;20329;-82
2023/08/07 02:15:03;;;;;;;15.40;4.20;;;;;;;19.99;72.83;100488.13;6151736;23;20027;-79
2023/08/07 02:17:35;;;;;;;29.70;4.45;;;;;;;20.76;73.09;100607.47;6152182;23;20564;-81
2023/08/07 02:20:05;;;;;;;14.45;3.55;;;;;;;20.56;72.97;100583.13;6160022;23;20137;-82
2023/08/07 02:22:32;;;;;;;18.08;3.60;;;;;;;20.67;72.61;100587.94;6139677;23;20314;-82
2023/08/07 02:25:00;;;;;;;19.05;3.42;;;;;;;20.77;72.81;100616.38;6126056;23;20100;-81
2023/08/07 02:27:31;;;;;;;21.25;4.32;;;;;;;20.82;72.57;100605.81;6132533;23;20021;-80
2023/08/07 02:29:58;;;;;;;11.82;3.63;;;;;;;20.80;72.03;100572.81;6144669;23;20404;-82
2023/08/07 02:32:24;;;;;;;12.65;3.20;;;;;;;20.99;71.66;100574.72;6146463;23;20049;-80
2023/08/07 02:34:51;;;;;;;14.25;3.17;;;;;;;21.16;70.94;100587.81;6121334;23;20021;-80
2023/08/07 02:37:18;;;;;;;10.93;2.88;;;;;;;21.23;70.46;100577.84;6140612;23;20053;-81
2023/08/07 02:39:49;;;;;;;17.50;3.00;;;;;;;20.49;69.65;100450.13;6128481;23;20057;-81
2023/08/07 02:42:27;;;;;;;21.38;3.25;;;;;;;21.02;69.37;100558.13;6137453;23;20079;-81
2023/08/07 02:45:07;;;;;;;13.98;3.40;;;;;;;21.06;69.73;100597.16;6111788;23;20021;-81
2023/08/07 02:47:38;;;;;;;21.48;3.70;;;;;;;20.72;70.79;100567.63;6139410;23;20113;-79
2023/08/07 02:50:05;;;;;;;19.92;3.47;;;;;;;20.90;70.59;100594.84;6150451;23;20311;-80
2023/08/07 02:52:32;;;;;;;15.95;3.55;;;;;;;20.97;70.96;100620.00;6125773;23;20067;-80
2023/08/07 02:54:59;;;;;;;15.27;4.13;;;;;;;20.81;71.64;100620.34;6150957;23;20100;-80
2023/08/07 02:57:25;;;;;;;14.68;3.85;;;;;;;20.77;71.84;100619.91;6142585;23;20604;-79
2023/08/07 02:59:52;;;;;;;14.07;3.65;;;;;;;20.50;72.44;100592.00;6140828;23;20017;-80
2023/08/07 03:02:19;;;;;;;22.00;3.90;;;;;;;20.39;72.41;100573.69;6139441;23;20021;-81
2023/08/07 03:04:51;;;;;;;12.05;2.88;;;;;;;20.68;72.50;100615.72;6181992;23;20017;-80
2023/08/07 03:07:18;;;;;;;21.60;3.70;;;;;;;20.62;72.36;100606.59;6152663;23;20021;-80
2023/08/07 03:09:47;;;;;;;25.88;4.53;;;;;;;20.72;72.48;100610.78;6139041;23;20023;-81
2023/08/07 03:12:14;;;;;;;20.77;3.90;;;;;;;20.57;72.39;100590.19;6144364;23;20024;-80
2023/08/07 03:14:41;;;;;;;23.20;4.50;;;;;;;20.69;72.96;100612.00;6142652;23;20383;-77
2023/08/07 03:17:07;;;;;;;15.23;3.58;;;;;;;20.62;72.66;100595.81;6144571;23;20020;-82
2023/08/07 03:19:37;;;;;;;20.98;4.80;;;;;;;20.50;72.41;100598.22;6141289;23;20622;-78
2023/08/07 03:22:12;;;;;;;15.13;4.53;;;;;;;20.30;73.31;100577.63;6151112;23;20017;-81
2023/08/07 03:24:40;;;;;;;16.38;3.85;;;;;;;20.55;73.11;100616.53;6097230;23;20376;-80
2023/08/07 03:27:07;;;;;;;13.18;3.95;;;;;;;20.55;73.04;100611.13;6117506;23;20190;-82
2023/08/07 03:29:34;;;;;;;15.63;4.65;;;;;;;20.64;72.63;100614.50;6124154;23;20028;-79
2023/08/07 03:32:05;;;;;;;12.07;4.97;;;;;;;20.57;72.18;100613.63;6126344;23;20272;-79
2023/08/07 03:34:32;;;;;;;19.10;5.50;;;;;;;20.48;72.38;100618.31;6138816;23;20401;-79
2023/08/07 03:37:03;;;;;;;15.52;4.50;;;;;;;20.46;72.63;100612.28;6102597;23;20536;-80
2023/08/07 03:39:31;;;;;;;20.17;3.92;;;;;;;20.61;72.63;100639.19;6148044;23;20552;-80
2023/08/07 03:41:57;;;;;;;20.80;4.53;;;;;;;20.64;72.17;100633.38;6068471;23;20412;-81
2023/08/07 03:44:34;;;;;;;18.02;5.30;;;;;;;20.64;71.73;100628.81;6143807;23;20104;-79
2023/08/07 03:47:01;;;;;;;15.45;4.97;;;;;;;20.68;71.80;100648.09;6166675;23;20096;-79
2023/08/07 03:49:27;;;;;;;14.98;5.05;;;;;;;20.34;71.51;100597.72;6168117;23;20025;-80
2023/08/07 03:51:54;;;;;;;18.60;4.63;;;;;;;20.51;72.07;100642.22;6175582;23;20144;-79
2023/08/07 03:54:21;;;;;;;13.60;4.22;;;;;;;20.53;71.69;100640.13;6169400;23;20021;-80
2023/08/07 03:56:48;;;;;;;15.18;4.70;;;;;;;20.59;71.62;100652.84;6167870;23;20449;-80
2023/08/07 03:59:15;;;;;;;19.02;4.47;;;;;;;20.67;71.55;100663.44;6164318;23;20022;-79
2023/08/07 04:01:41;;;;;;;16.85;4.25;;;;;;;20.59;71.37;100660.94;6167306;23;20055;-81
2023/08/07 04:04:08;;;;;;;17.23;4.63;;;;;;;20.40;71.54;100630.13;6167556;23;20139;-80
2023/08/07 04:06:35;;;;;;;16.73;3.97;;;;;;;20.56;71.70;100658.66;6192723;23;20021;-79
2023/08/07 04:09:03;;;;;;;15.82;5.05;;;;;;;20.58;71.67;100656.56;6178986;23;20013;-80
2023/08/07 04:11:30;;;;;;;15.57;4.10;;;;;;;20.62;71.41;100674.00;6171377;23;20253;-79
2023/08/07 04:13:56;;;;;;;12.43;3.17;;;;;;;20.62;71.84;100670.50;6177115;23;20334;-80
2023/08/07 04:16:23;;;;;;;16.60;4.15;;;;;;;20.60;71.68;100684.16;6187455;23;20389;-80
2023/08/07 04:18:51;;;;;;;19.10;4.05;;;;;;;20.60;71.38;100665.28;6177474;23;20017;-80
2023/08/07 04:21:18;;;;;;;11.15;3.30;;;;;;;20.67;71.46;100679.63;6185678;23;20099;-79
2023/08/07 04:23:45;;;;;;;10.10;3.00;;;;;;;20.52;71.16;100643.88;6177220;23;20021;-79
2023/08/07 04:26:11;;;;;;;20.77;4.07;;;;;;;20.35;70.99;100613.72;6177509;23;20144;-79
2023/08/07 04:28:38;;;;;;;13.77;3.83;;;;;;;20.73;71.13;100678.03;6188029;23;20025;-81
2023/08/07 04:31:05;;;;;;;19.25;3.10;;;;;;;20.80;70.79;100680.72;6187677;23;20017;-78
2023/08/07 04:33:31;;;;;;;19.52;3.92;;;;;;;20.35;69.99;100594.84;6177977;23;20056;-79
2023/08/07 04:35:58;;;;;;;16.25;3.40;;;;;;;20.40;70.24;100605.03;6193099;23;20040;-79
2023/08/07 04:38:25;;;;;;;12.23;3.35;;;;;;;20.75;70.01;100658.91;6191151;23;20091;-79
2023/08/07 04:40:52;;;;;;;15.95;3.10;;;;;;;20.85;70.18;100672.84;6175358;23;20017;-80
2023/08/07 04:43:22;;;;;;;14.48;3.00;;;;;;;20.97;69.73;100675.81;6176078;23;20457;-79
2023/08/07 04:45:48;;;;;;;11.68;3.45;;;;;;;20.90;69.31;100636.16;6174824;23;20035;-79
2023/08/07 04:48:17;;;;;;;14.00;3.00;;;;;;;21.21;68.47;100659.03;6185580;23;20306;-80
2023/08/07 04:50:44;;;;;;;13.88;3.03;;;;;;;21.22;68.00;100668.00;6174937;23;20388;-81
2023/08/07 04:53:10;;;;;;;22.05;3.17;;;;;;;21.12;67.92;100666.50;6185590;23;20273;-80
2023/08/07 04:55:38;;;;;;;14.35;3.15;;;;;;;21.17;67.73;100667.78;6175460;23;20028;-81
2023/08/07 04:58:05;;;;;;;15.07;4.40;;;;;;;20.99;66.30;100636.78;6176264;23;20067;-79
2023/08/07 05:00:32;;;;;;;15.90;3.45;;;;;;;21.03;64.86;100646.16;6175365;23;20020;-80
2023/08/07 05:02:59;;;;;;;14.57;3.17;;;;;;;21.13;64.93;100678.97;6185148;23;20020;-80
2023/08/07 05:05:27;;;;;;;16.27;3.72;;;;;;;21.10;64.74;100684.78;6200674;23;20307;-79
2023/08/07 05:07:55;;;;;;;6.68;2.47;;;;;;;21.02;65.47;100676.88;6175272;23;20017;-80
2023/08/07 05:10:22;;;;;;;10.45;3.45;;;;;;;21.15;64.91;100683.34;6175232;23;20025;-79
2023/08/07 05:12:54;;;;;;;19.67;3.55;;;;;;;21.12;64.61;100671.91;6187201;23;20103;-80
2023/08/07 05:15:22;;;;;;;11.02;2.95;;;;;;;21.27;63.22;100679.84;6186907;23;20017;-81
2023/08/07 05:17:50;;;;;;;18.05;3.20;;;;;;;20.98;63.06;100643.22;6183792;23;20091;-79
2023/08/07 05:20:17;;;;;;;6.47;2.65;;;;;;;21.17;61.88;100667.78;6187071;23;20024;-78
2023/08/07 05:22:44;;;;;;;8.07;2.33;;;;;;;21.13;61.97;100657.38;6177355;23;20021;-80
2023/08/07 05:25:15;;;;;;;6.10;2.90;;;;;;;21.33;58.65;100683.56;6188784;23;20017;-79
2023/08/07 05:27:45;;;;;;;16.33;2.88;;;;;;;21.11;59.43;100664.00;6176841;23;20031;-80
2023/08/07 05:30:12;;;;;;;12.02;3.00;;;;;;;21.25;58.79;100672.97;6177280;23;20025;-80
2023/08/07 05:32:39;;;;;;;10.13;2.22;;;;;;;21.33;58.13;100694.38;6187197;23;20488;-79
2023/08/07 05:35:07;;;;;;;10.77;2.95;;;;;;;20.83;56.74;100602.09;6176219;23;20104;-81
2023/08/07 05:37:34;;;;;;;5.32;2.22;;;;;;;21.57;56.29;100700.25;6177204;23;20024;-80
2023/08/07 05:40:02;;;;;;;5.53;1.65;;;;;;;21.60;54.44;100702.53;6176788;23;20037;-79
2023/08/07 05:42:28;;;;;;;12.63;2.70;;;;;;;21.41;54.83;100686.13;6188815;23;20029;-79
2023/08/07 05:44:55;;;;;;;7.70;2.40;;;;;;;21.51;54.11;100702.75;6177853;23;20356;-79
2023/08/07 05:47:22;;;;;;;8.48;2.40;;;;;;;21.39;52.78;100677.41;6177138;23;20072;-79
2023/08/07 05:49:48;;;;;;;6.30;2.10;;;;;;;21.66;52.13;100713.38;6186310;23;20461;-79
2023/08/07 05:52:17;;;;;;;5.10;1.92;;;;;;;21.67;51.93;100717.72;6186187;23;20154;-80
2023/08/07 05:54:43;;;;;;;5.38;1.95;;;;;;;21.55;50.55;100685.09;6186689;23;20217;-80
2023/08/07 05:57:10;;;;;;;5.43;1.73;;;;;;;21.66;49.91;100699.03;6186624;23;20472;-78
2023/08/07 05:59:37;;;;;;;4.10;1.85;;;;;;;21.84;48.55;100726.25;6188058;23;20324;-79
2023/08/07 06:02:04;;;;;;;3.78;1.70;;;;;;;21.54;46.98;100669.91;6176108;23;20028;-79
2023/08/07 06:04:31;;;;;;;7.53;1.73;;;;;;;21.90;46.88;100728.13;6186993;23;20104;-77
2023/08/07 06:06:58;;;;;;;5.15;1.90;;;;;;;21.71;46.22;100702.75;6177525;23;20183;-78
2023/08/07 06:09:25;;;;;;;4.45;1.50;;;;;;;21.90;46.39;100727.31;6175904;23;20017;-78
2023/08/07 06:11:52;;;;;;;3.78;2.03;;;;;;;21.87;49.12;100733.09;6176074;23;20032;-79
2023/08/07 06:14:19;;;;;;;6.68;2.10;;;;;;;21.83;46.72;100700.28;6186267;23;20075;-79
2023/08/07 06:16:46;;;;;;;6.85;1.38;;;;;;;22.01;48.37;100737.47;6186407;23;20027;-82
2023/08/07 06:19:13;;;;;;;5.63;1.90;;;;;;;21.96;46.47;100713.78;6176601;23;20354;-79
2023/08/07 06:21:57;;;;;;;6.70;1.95;;;;;;;21.95;45.33;100700.47;6178807;23;20021;-80
2023/08/07 06:24:25;;;;;;;2.50;1.30;;;;;;;21.83;45.40;100684.06;6177207;23;20016;-80
2023/08/07 06:26:52;;;;;;;5.72;1.75;;;;;;;22.14;45.47;100745.59;6177813;23;20380;-79
2023/08/07 06:29:19;;;;;;;6.95;1.67;;;;;;;22.09;45.15;100752.66;6186663;23;20025;-79
2023/08/07 06:31:45;;;;;;;6.18;2.00;;;;;;;22.11;46.10;100729.78;6188185;23;20119;-78
2023/08/07 06:34:12;;;;;;;3.67;1.35;;;;;;;21.79;45.75;100666.59;6186143;23;20021;-78
2023/08/07 06:36:39;;;;;;;7.25;1.98;;;;;;;22.18;43.62;100717.06;6176899;23;20021;-79
2023/08/07 06:39:05;;;;;;;1.83;1.33;;;;;;;22.27;44.02;100731.25;6176930;23;20017;-79
2023/08/07 06:41:32;;;;;;;5.68;1.40;;;;;;;22.11;42.05;100712.72;6178603;23;20021;-78
2023/08/07 06:43:59;;;;;;;5.57;1.90;;;;;;;21.85;43.10;100709.00;6189958;23;20427;-78
2023/08/07 06:46:27;;;;;;;5.15;1.92;;;;;;;21.79;42.99;100703.59;6189753;23;20079;-80
2023/08/07 06:48:54;;;;;;;4.13;1.90;;;;;;;21.98;43.17;100733.31;6176024;23;20021;-78
2023/08/07 06:51:21;;;;;;;4.80;1.70;;;;;;;21.86;42.62;100705.25;6174700;23;20025;-78
2023/08/07 06:53:48;;;;;;;3.03;1.67;;;;;;;22.06;43.87;100734.16;6175914;23;20671;-80
2023/08/07 06:56:14;;;;;;;5.93;2.13;;;;;;;22.16;42.37;100721.88;6186752;23;20024;-85
2023/08/07 06:58:41;;;;;;;4.15;1.92;;;;;;;22.31;42.52;100727.09;6186940;23;20021;-88
2023/08/07 07:01:08;;;;;;;3.58;2.00;;;;;;;21.55;41.50;100628.38;6188111;23;20023;-90
2023/08/07 07:03:38;;;;;;;4.65;1.88;;;;;;;20.93;41.65;100535.06;6187747;23;20373;-88
2023/08/07 07:06:04;;;;;;;8.90;2.13;;;;;;;21.63;42.29;100648.94;6188645;23;20025;-87
2023/08/07 07:08:31;;;;;;;4.82;2.13;;;;;;;21.02;42.68;100552.72;6187123;23;20180;-88
2023/08/07 07:10:58;;;;;;;9.82;2.00;;;;;;;21.40;41.32;100586.41;6186559;23;20017;-89
2023/08/07 07:13:25;;;;;;;4.60;1.48;;;;;;;21.05;40.49;100528.03;6177434;23;20103;-88
2023/08/07 07:15:55;;;;;;;5.10;1.90;;;;;;;21.47;42.37;100590.75;6186983;23;20445;-90
2023/08/07 07:18:22;;;;;;;10.15;1.90;;;;;;;21.19;40.96;100533.41;6187760;23;20025;-92
2023/08/07 07:20:57;;;;;;;13.45;2.63;;;;;;;21.02;40.04;100492.50;6187971;23;20146;-92
2023/08/07 07:23:27;;;;;;;3.42;1.80;;;;;;;21.87;40.17;100615.06;6187238;23;20032;-90
2023/08/07 07:25:54;;;;;;;3.40;1.60;;;;;;;21.24;40.50;100512.88;6177552;23;20453;-91
2023/08/07 07:28:23;;;;;;;3.85;1.42;;;;;;;22.60;40.22;100731.19;6187552;23;20017;-90
2023/08/07 07:30:50;;;;;;;5.88;1.50;;;;;;;22.24;41.05;100652.44;6181283;23;20111;-88
2023/08/07 07:33:17;;;;;;;4.75;1.45;;;;;;;22.45;37.80;100670.25;6177576;23;20083;-87
2023/08/07 07:35:44;;;;;;;10.20;1.45;;;;;;;22.33;40.53;100654.69;6176399;23;20021;-90
2023/08/07 07:38:10;;;;;;;10.18;2.10;;;;;;;21.61;37.26;100532.16;6187112;23;20087;-89
2023/08/07 07:40:37;;;;;;;5.57;1.15;;;;;;;22.02;36.60;100603.19;6176692;23;20017;-89
2023/08/07 07:43:04;;;;;;;5.18;1.45;;;;;;;21.60;37.70;100548.56;6188602;23;20338;-90
2023/08/07 07:45:33;;;;;;;4.63;1.60;;;;;;;22.25;37.58;100633.28;6179623;23;20108;-89
2023/08/07 07:48:00;;;;;;;3.30;1.27;;;;;;;22.11;36.36;100593.78;6189424;23;20059;-92
2023/08/07 07:50:27;;;;;;;6.95;1.60;;;;;;;22.07;37.16;100592.56;6190958;23;20111;-90
2023/08/07 07:52:54;;;;;;;2.45;1.30;;;;;;;22.48;37.46;100659.03;6189260;23;20051;-91
2023/08/07 07:55:21;;;;;;;3.08;1.35;;;;;;;21.71;38.17;100540.66;6189098;23;20033;-90
2023/08/07 07:57:48;;;;;;;3.35;1.75;;;;;;;21.96;37.73;100565.13;6179636;23;20448;-90
2023/08/07 08:00:15;;;;;;;3.50;1.45;;;;;;;22.76;37.02;100697.41;6192098;23;20020;-89
2023/08/07 08:02:43;;;;;;;5.45;1.52;;;;;;;22.54;38.56;100658.16;6193955;23;20028;-91
2023/08/07 08:05:10;;;;;;;3.45;1.48;;;;;;;22.36;38.94;100638.03;6193039;23;20392;-89
2023/08/07 08:07:39;;;;;;;3.97;1.85;;;;;;;22.06;37.77;100563.84;6218501;23;20096;-88
2023/08/07 08:10:08;;;;;;;6.53;1.90;;;;;;;22.10;38.57;100554.28;6193938;23;20044;-89
2023/08/07 08:12:36;;;;;;;6.78;2.35;;;;;;;23.07;37.90;100712.09;6192854;23;20440;-87
2023/08/07 08:15:04;;;;;;;9.05;1.85;;;;;;;22.27;37.34;100558.19;6194638;23;20512;-89
2023/08/07 08:17:31;;;;;;;3.92;1.30;;;;;;;22.77;36.24;100644.94;6191885;23;20063;-89
2023/08/07 08:19:58;;;;;;;4.45;1.50;;;;;;;23.13;36.75;100694.97;6188790;23;20017;-83
2023/08/07 08:22:25;;;;;;;9.63;1.75;;;;;;;23.27;36.39;100705.72;6189944;23;20028;-87
2023/08/07 08:24:52;;;;;;;2.15;1.30;;;;;;;22.47;37.70;100576.19;6178249;23;20022;-88
2023/08/07 08:27:19;;;;;;;3.95;1.45;;;;;;;23.40;36.30;100733.56;6180095;23;20024;-86
2023/08/07 08:29:46;;;;;;;6.22;1.63;;;;;;;23.01;38.80;100635.28;6187826;23;20241;-87
2023/08/07 08:32:13;;;;;;;8.90;1.80;;;;;;;23.05;36.11;100632.94;6187771;23;20400;-86
2023/08/07 08:34:40;;;;;;;15.23;3.30;;;;;;;23.88;37.40;100773.72;6179776;23;20076;-90
2023/08/07 08:37:07;;;;;;;8.82;1.77;;;;;;;22.70;38.78;100554.84;6189156;23;20021;-89
2023/08/07 08:39:34;;;;;;;3.58;1.38;;;;;;;23.94;36.33;100755.72;6178450;23;20051;-88
2023/08/07 08:42:02;;;;;;;3.60;1.02;;;;;;;23.52;38.59;100646.16;6187419;23;20032;-78
2023/08/07 08:44:31;;;;;;;3.88;1.27;;;;;;;24.28;35.36;100769.84;6189243;23;20080;-78
2023/08/07 08:46:59;;;;;;;3.85;1.60;;;;;;;24.28;34.17;100754.38;6179371;23;20021;-78
2023/08/07 08:49:37;;;;;;;3.45;1.15;;;;;;;24.38;36.41;100772.03;6187910;23;20249;-79
2023/08/07 08:52:04;;;;;;;4.30;1.30;;;;;;;24.40;34.44;100769.94;6158336;23;20489;-78
2023/08/07 08:54:32;;;;;;;5.25;1.15;;;;;;;24.55;35.53;100788.59;6182611;23;20029;-79
2023/08/07 08:56:59;;;;;;;13.35;1.83;;;;;;;24.51;33.25;100783.59;6187769;23;20398;-78
2023/08/07 08:59:27;;;;;;;5.85;1.65;;;;;;;24.23;34.86;100737.13;6177542;23;20105;-78
2023/08/07 09:01:54;;;;;;;3.90;1.20;;;;;;;24.74;36.66;100790.28;6177512;23;20540;-77
2023/08/07 09:04:20;;;;;;;2.45;1.05;;;;;;;24.83;33.02;100786.22;6177672;23;20072;-78
2023/08/07 09:06:47;;;;;;;2.25;1.08;;;;;;;24.90;32.35;100764.41;6187274;23;20021;-79
2023/08/07 09:09:16;;;;;;;7.07;1.58;;;;;;;24.86;30.95;100790.38;6177008;23;20029;-78
2023/08/07 09:11:45;;;;;;;3.65;1.33;;;;;;;24.62;31.40;100749.47;6178949;23;20028;-78
2023/08/07 09:14:26;;;;;;;3.53;1.30;;;;;;;24.83;30.79;100790.78;6189330;23;20032;-79
2023/08/07 09:16:53;;;;;;;9.88;1.75;;;;;;;24.89;32.35;100790.72;6212430;23;20389;-79
2023/08/07 09:19:20;;;;;;;5.47;1.52;;;;;;;24.90;32.97;100767.97;6178785;23;20021;-78
2023/08/07 09:21:47;;;;;;;7.55;2.15;;;;;;;25.01;35.93;100773.69;6177436;23;20021;-79
2023/08/07 09:24:16;;;;;;;8.02;1.60;;;;;;;24.76;33.37;100719.44;6187373;23;20520;-80
2023/08/07 09:26:43;;;;;;;4.45;1.67;;;;;;;25.15;32.44;100751.56;6177378;23;20108;-79
2023/08/07 09:29:10;;;;;;;7.97;1.13;;;;;;;25.25;34.01;100775.50;6187199;23;20234;-80
2023/08/07 09:31:37;;;;;;;3.92;1.40;;;;;;;25.28;32.37;100780.44;6176801;23;20369;-79
2023/08/07 09:34:05;;;;;;;4.18;1.38;;;;;;;25.01;32.50;100716.66;6177589;23;20017;-79
2023/08/07 09:36:33;;;;;;;6.85;1.35;;;;;;;25.62;33.90;100805.28;6176899;23;20021;-79
2023/08/07 09:39:04;;;;;;;4.20;1.15;;;;;;;25.29;29.97;100745.97;6176777;23;20326;-78
2023/08/07 09:41:30;;;;;;;5.10;1.52;;;;;;;25.54;32.38;100803.72;6186427;23;20017;-78
2023/08/07 09:43:58;;;;;;;3.33;1.05;;;;;;;25.52;32.82;100780.56;6180357;23;20059;-80
2023/08/07 09:46:27;;;;;;;1.30;1.10;;;;;;;25.79;34.41;100784.53;6177004;23;20104;-78
2023/08/07 09:48:58;;;;;;;2.85;1.10;;;;;;;25.61;31.64;100775.59;6177003;23;20021;-79
2023/08/07 09:51:25;;;;;;;5.95;1.17;;;;;;;25.83;32.36;100794.94;6176743;23;20028;-80
2023/08/07 09:53:52;;;;;;;2.35;1.05;;;;;;;25.95;31.17;100799.38;6186746;23;20214;-79
2023/08/07 09:56:18;;;;;;;3.83;1.60;;;;;;;25.95;33.01;100788.50;6186606;23;20029;-80
2023/08/07 09:58:48;;;;;;;3.30;1.15;;;;;;;26.04;31.01;100788.97;6178060;23;20032;-78
2023/08/07 10:01:16;;;;;;;4.97;1.10;;;;;;;26.01;29.82;100770.41;6177055;23;20080;-79
2023/08/07 10:03:44;;;;;;;2.35;1.13;;;;;;;26.28;30.41;100792.56;6182736;23;20282;-79
2023/08/07 10:06:12;;;;;;;2.45;0.90;;;;;;;26.41;32.25;100780.63;6185540;23;20340;-80
2023/08/07 10:08:40;;;;;;;2.97;1.27;;;;;;;26.62;30.50;100812.69;6186760;23;20520;-78
2023/08/07 10:11:09;;;;;;;4.55;1.42;;;;;;;26.75;28.62;100803.47;6176871;23;20017;-79
2023/08/07 10:13:37;;;;;;;2.63;1.00;;;;;;;26.58;29.42;100776.16;6186712;23;20494;-79
2023/08/07 10:16:05;;;;;;;3.45;0.95;;;;;;;26.85;29.47;100790.06;6186851;23;20021;-80
2023/08/07 10:18:33;;;;;;;2.05;1.00;;;;;;;27.04;27.75;100804.38;6186306;23;20568;-79
2023/08/07 10:21:02;;;;;;;2.80;1.20;;;;;;;26.75;30.09;100742.72;6186006;23;20020;-80
2023/08/07 10:23:29;;;;;;;7.85;1.02;;;;;;;27.15;32.65;100799.13;6186312;23;20100;-79
2023/08/07 10:25:57;;;;;;;6.03;1.25;;;;;;;27.31;27.81;100794.81;6176714;23;20084;-79
2023/08/07 10:28:25;;;;;;;5.32;1.40;;;;;;;27.22;28.08;100773.41;6177552;23;20364;-78
2023/08/07 10:30:56;;;;;;;13.27;1.40;;;;;;;27.19;27.91;100775.81;6174509;23;20067;-79
2023/08/07 10:33:24;;;;;;;2.75;0.80;;;;;;;27.60;31.66;100799.22;6186734;23;20037;-79
2023/08/07 10:35:52;;;;;;;4.03;1.10;;;;;;;27.40;29.83;100804.25;6186461;23;20021;-79
2023/08/07 10:38:22;;;;;;;3.95;0.88;;;;;;;27.19;28.16;100748.56;6176279;23;20017;-79
2023/08/07 10:40:58;;;;;;;1.80;1.10;;;;;;;27.56;28.12;100791.75;6186643;23;20027;-81
2023/08/07 10:43:27;;;;;;;4.55;1.05;;;;;;;27.77;28.49;100798.38;6201373;23;20017;-79
2023/08/07 10:46:04;;;;;;;5.75;1.38;;;;;;;27.76;28.71;100783.09;6176217;23;20082;-80
2023/08/07 10:48:41;;;;;;;3.88;1.15;;;;;;;27.18;27.58;100656.94;6176175;23;20021;-79
2023/08/07 10:51:08;;;;;;;3.30;1.13;;;;;;;28.09;26.34;100805.00;6186215;23;20475;-78
2023/08/07 10:53:37;;;;;;;6.72;1.40;;;;;;;28.16;26.07;100799.38;6176220;23;20237;-79
2023/08/07 10:56:07;;;;;;;4.22;1.08;;;;;;;28.26;26.99;100801.44;6176144;23;20025;-80
2023/08/07 10:58:38;;;;;;;1.30;0.80;;;;;;;28.40;29.58;100788.25;6186154;23;20025;-79
2023/08/07 11:01:21;;;;;;;1.92;0.90;;;;;;;28.15;27.25;100797.69;6176874;23;20503;-78
2023/08/07 11:03:56;;;;;;;3.40;1.10;;;;;;;28.27;28.32;100787.53;6180089;23;20029;-81
2023/08/07 11:06:26;;;;;;;4.55;1.02;;;;;;;28.29;28.70;100776.38;6177236;23;20021;-79
2023/08/07 11:08:53;;;;;;;3.35;1.30;;;;;;;28.36;25.47;100746.16;6178160;23;20408;-79
2023/08/07 11:11:20;;;;;;;2.45;1.30;;;;;;;28.64;27.46;100797.09;6185002;23;20021;-79
2023/08/07 11:13:46;;;;;;;3.40;1.02;;;;;;;28.76;26.09;100795.94;6176149;23;20032;-79
2023/08/07 11:16:13;;;;;;;5.60;1.20;;;;;;;28.81;26.94;100791.59;6185851;23;20077;-80
2023/08/07 11:18:41;;;;;;;1.35;0.90;;;;;;;29.00;28.96;100792.09;6187478;23;20107;-79
2023/08/07 11:21:12;;;;;;;4.50;1.40;;;;;;;28.94;25.92;100761.16;6177785;23;20025;-80
2023/08/07 11:23:40;;;;;;;4.68;1.00;;;;;;;28.99;25.72;100755.75;6175337;23;20392;-78
2023/08/07 11:26:09;;;;;;;4.65;1.00;;;;;;;28.26;25.85;100654.88;6185405;23;20017;-79